Time;durP1;ratioP1;P1;durP2;ratioP2;P2;SDS_P1;SDS_P2;PMS_P1;PMS_P2;Temp;Humidity;BMP_temperature;BMP_pressure;BME280_temperature;BME280_humidity;BME280_pressure;Samples;Min_cycle;Max_cycle;Signal;HPM_P1;HPM_P2
2022/10/12 00:00:57;;;;;;;8.50;5.63;;;;;;;;;;12967678;22;20359;-87
2022/10/12 00:06:04;;;;;;;8.00;6.13;;;;;;;;;;12968816;22;20355;-87
2022/10/12 00:11:10;;;;;;;9.90;6.80;;;;;;;;;;12967916;22;20398;-88
2022/10/12 00:16:14;;;;;;;10.93;6.10;;;;;;;;;;12968796;22;20370;-85
2022/10/12 00:21:17;;;;;;;10.38;7.00;;;;;;;;;;12968778;22;20458;-87
2022/10/12 00:26:22;;;;;;;9.90;6.78;;;;;;;;;;12967978;22;20387;-86
2022/10/12 00:31:24;;;;;;;10.05;6.47;;;;;;;;;;12967587;22;20870;-88
2022/10/12 00:36:27;;;;;;;11.47;7.00;;;;;;;;;;12967674;22;20437;-88
2022/10/12 00:41:33;;;;;;;9.13;6.85;;;;;;;;;;12966827;22;20371;-88
2022/10/12 00:46:39;;;;;;;13.10;7.32;;;;;;;;;;12967245;22;20362;-85
2022/10/12 00:51:42;;;;;;;11.37;6.97;;;;;;;;;;12967946;22;20460;-86
2022/10/12 00:56:48;;;;;;;10.27;7.60;;;;;;;;;;12967572;22;20366;-86
2022/10/12 01:01:50;;;;;;;9.93;7.15;;;;;;;;;;12968682;22;20436;-87
2022/10/12 01:06:53;;;;;;;11.03;7.07;;;;;;;;;;12964905;22;20467;-88
2022/10/12 01:11:57;;;;;;;11.23;7.18;;;;;;;;;;12966229;22;20393;-87
2022/10/12 01:17:08;;;;;;;10.63;6.97;;;;;;;;;;12967018;22;20374;-88
2022/10/12 01:22:13;;;;;;;10.18;6.80;;;;;;;;;;12966441;22;20426;-88
2022/10/12 01:27:46;;;;;;;12.57;7.17;;;;;;;;;;12964950;22;20851;-88
2022/10/12 01:33:09;;;;;;;10.75;6.80;;;;;;;;;;12966305;22;20398;-87
2022/10/12 01:38:25;;;;;;;9.18;6.63;;;;;;;;;;12965726;22;20847;-87
2022/10/12 01:43:34;;;;;;;10.40;6.90;;;;;;;;;;12965598;22;20375;-87
2022/10/12 01:48:37;;;;;;;10.98;6.65;;;;;;;;;;12966247;22;20747;-87
2022/10/12 01:53:46;;;;;;;11.48;6.63;;;;;;;;;;12965258;22;20397;-87
2022/10/12 01:58:57;;;;;;;10.30;7.13;;;;;;;;;;12965999;22;20388;-87
2022/10/12 02:04:10;;;;;;;11.15;6.82;;;;;;;;;;12965904;22;20692;-86
2022/10/12 02:09:17;;;;;;;10.57;7.07;;;;;;;;;;12964850;22;20394;-87
2022/10/12 02:14:22;;;;;;;14.07;7.22;;;;;;;;;;12965901;22;20370;-87
2022/10/12 02:19:29;;;;;;;10.55;7.00;;;;;;;;;;12967564;22;20374;-90
2022/10/12 02:24:33;;;;;;;12.45;7.30;;;;;;;;;;12993774;22;20389;-90
2022/10/12 02:29:38;;;;;;;11.98;7.10;;;;;;;;;;12971567;22;20679;-91
2022/10/12 02:34:46;;;;;;;10.98;7.25;;;;;;;;;;12971235;22;20849;-91
2022/10/12 02:39:53;;;;;;;14.30;7.68;;;;;;;;;;12972508;22;20442;-90
2022/10/12 02:44:57;;;;;;;11.53;7.43;;;;;;;;;;12971660;22;20378;-91
2022/10/12 02:50:02;;;;;;;10.73;7.40;;;;;;;;;;12970771;22;20354;-91
2022/10/12 02:55:05;;;;;;;11.90;7.80;;;;;;;;;;12971806;22;20371;-91
2022/10/12 03:00:09;;;;;;;12.87;7.80;;;;;;;;;;12970945;22;20358;-91
2022/10/12 03:05:12;;;;;;;11.57;7.82;;;;;;;;;;12970092;22;20413;-91
2022/10/12 03:10:14;;;;;;;10.93;7.80;;;;;;;;;;12970370;22;20354;-90
2022/10/12 03:15:16;;;;;;;11.70;7.95;;;;;;;;;;12970769;22;20857;-91
2022/10/12 03:20:19;;;;;;;12.23;8.07;;;;;;;;;;12970004;22;20385;-91
2022/10/12 03:25:21;;;;;;;12.55;7.93;;;;;;;;;;12970279;22;20374;-89
2022/10/12 03:30:23;;;;;;;11.23;7.90;;;;;;;;;;12970464;22;20390;-90
2022/10/12 03:35:26;;;;;;;13.07;8.15;;;;;;;;;;12969914;22;20394;-91
2022/10/12 03:40:28;;;;;;;12.23;7.80;;;;;;;;;;12969488;22;20412;-90
2022/10/12 03:45:30;;;;;;;12.33;7.37;;;;;;;;;;12969559;22;20379;-91
2022/10/12 03:50:34;;;;;;;13.55;7.97;;;;;;;;;;12969583;22;20484;-90
2022/10/12 03:55:36;;;;;;;18.45;8.18;;;;;;;;;;12968982;22;20355;-91
2022/10/12 04:00:38;;;;;;;16.40;8.00;;;;;;;;;;12970712;22;20358;-91
2022/10/12 04:05:41;;;;;;;11.93;7.77;;;;;;;;;;12971312;22;20406;-90
2022/10/12 04:10:44;;;;;;;15.50;8.15;;;;;;;;;;12968817;22;20389;-90
2022/10/12 04:15:47;;;;;;;12.65;7.80;;;;;;;;;;12967621;22;20710;-91
2022/10/12 04:20:51;;;;;;;14.18;7.43;;;;;;;;;;12968301;22;20386;-90
2022/10/12 04:25:52;;;;;;;11.48;7.43;;;;;;;;;;12968231;22;20414;-90
2022/10/12 04:30:55;;;;;;;13.38;7.25;;;;;;;;;;12968361;22;20461;-91
2022/10/12 04:35:58;;;;;;;11.60;7.35;;;;;;;;;;12968354;22;20362;-90
2022/10/12 04:41:00;;;;;;;10.88;7.10;;;;;;;;;;12967723;22;21020;-91
2022/10/12 04:46:02;;;;;;;12.32;7.30;;;;;;;;;;12968432;22;20440;-91
2022/10/12 04:51:06;;;;;;;12.05;7.68;;;;;;;;;;12970123;22;20413;-91
2022/10/12 04:56:08;;;;;;;12.15;7.57;;;;;;;;;;12970105;22;20403;-90
2022/10/12 05:01:10;;;;;;;13.23;7.23;;;;;;;;;;12968307;22;20366;-88
2022/10/12 05:06:14;;;;;;;15.40;8.20;;;;;;;;;;12970930;22;20458;-89
2022/10/12 05:11:15;;;;;;;13.50;7.70;;;;;;;;;;12967896;22;20370;-90
2022/10/12 05:16:17;;;;;;;11.88;7.85;;;;;;;;;;12965726;22;20870;-89
2022/10/12 05:21:21;;;;;;;11.57;7.60;;;;;;;;;;12967794;22;20397;-90
2022/10/12 05:26:23;;;;;;;12.40;7.80;;;;;;;;;;12968313;22;20410;-90
2022/10/12 05:31:25;;;;;;;18.27;9.03;;;;;;;;;;12968097;22;20752;-90
2022/10/12 05:36:29;;;;;;;15.13;8.43;;;;;;;;;;12969417;22;20363;-89
2022/10/12 05:41:31;;;;;;;12.43;7.50;;;;;;;;;;13001898;22;20362;-89
2022/10/12 05:46:33;;;;;;;12.43;7.88;;;;;;;;;;12981917;22;20382;-90
2022/10/12 05:51:37;;;;;;;14.90;8.27;;;;;;;;;;12964261;22;20866;-89
2022/10/12 05:56:39;;;;;;;10.98;7.95;;;;;;;;;;12967479;22;20442;-89
2022/10/12 06:01:41;;;;;;;11.18;7.70;;;;;;;;;;12969049;22;20358;-90
2022/10/12 06:06:44;;;;;;;11.83;8.03;;;;;;;;;;12970586;22;20398;-90
2022/10/12 06:11:46;;;;;;;12.35;7.75;;;;;;;;;;12971386;22;20695;-90
2022/10/12 06:16:48;;;;;;;13.17;7.53;;;;;;;;;;12974684;22;20365;-90
2022/10/12 06:21:51;;;;;;;14.43;7.28;;;;;;;;;;12997047;22;20363;-90
2022/10/12 06:26:53;;;;;;;11.77;7.80;;;;;;;;;;12970189;22;20406;-91
2022/10/12 06:31:55;;;;;;;9.70;7.35;;;;;;;;;;12970875;22;20660;-90
2022/10/12 06:36:58;;;;;;;12.00;8.18;;;;;;;;;;12971315;22;20358;-90
2022/10/12 06:42:00;;;;;;;13.82;7.72;;;;;;;;;;12969978;22;20359;-90
2022/10/12 06:47:02;;;;;;;11.35;7.05;;;;;;;;;;12971547;22;20387;-89
2022/10/12 06:52:05;;;;;;;12.47;7.20;;;;;;;;;;12971171;22;20610;-90
2022/10/12 06:57:08;;;;;;;15.47;7.13;;;;;;;;;;12971392;22;20373;-89
2022/10/12 07:02:10;;;;;;;11.07;7.68;;;;;;;;;;12972400;22;20862;-91
2022/10/12 07:07:14;;;;;;;12.75;7.90;;;;;;;;;;12971027;22;20524;-91
2022/10/12 07:12:16;;;;;;;13.18;7.78;;;;;;;;;;12941671;22;20748;-91
2022/10/12 07:17:17;;;;;;;12.32;7.35;;;;;;;;;;12969322;22;21056;-91
2022/10/12 07:22:21;;;;;;;10.93;7.47;;;;;;;;;;12969466;22;20397;-92
2022/10/12 07:27:23;;;;;;;11.77;7.40;;;;;;;;;;12969891;22;20394;-92
2022/10/12 07:32:25;;;;;;;11.83;7.57;;;;;;;;;;12968263;22;20742;-91
2022/10/12 07:37:28;;;;;;;13.43;7.22;;;;;;;;;;12966026;22;20449;-91
2022/10/12 07:42:30;;;;;;;14.23;7.67;;;;;;;;;;12967641;22;20354;-91
2022/10/12 07:47:32;;;;;;;14.35;7.03;;;;;;;;;;12971217;22;20438;-91
2022/10/12 07:52:35;;;;;;;12.38;7.25;;;;;;;;;;12973633;22;20386;-91
2022/10/12 07:57:37;;;;;;;13.57;7.38;;;;;;;;;;12986915;22;20368;-90
2022/10/12 08:02:39;;;;;;;10.52;7.07;;;;;;;;;;12995378;22;20694;-91
2022/10/12 08:07:43;;;;;;;12.18;6.85;;;;;;;;;;12986341;22;20370;-92
2022/10/12 08:12:45;;;;;;;10.80;6.87;;;;;;;;;;12970655;22;20393;-92
2022/10/12 08:17:47;;;;;;;13.52;7.38;;;;;;;;;;12972134;22;20470;-93
2022/10/12 08:22:50;;;;;;;12.00;6.93;;;;;;;;;;12973726;22;20362;-92
2022/10/12 08:27:52;;;;;;;12.38;7.47;;;;;;;;;;12969101;22;20363;-92
2022/10/12 08:32:54;;;;;;;14.98;7.80;;;;;;;;;;12970121;22;20450;-92
2022/10/12 08:37:57;;;;;;;13.10;8.17;;;;;;;;;;12970530;22;20432;-91
2022/10/12 08:43:06;;;;;;;17.20;7.93;;;;;;;;;;12969567;22;20901;-92
2022/10/12 08:48:13;;;;;;;12.03;7.90;;;;;;;;;;12968541;22;20386;-92
2022/10/12 08:53:21;;;;;;;12.60;6.95;;;;;;;;;;12967255;22;20390;-90
2022/10/12 08:58:30;;;;;;;12.90;6.90;;;;;;;;;;12966929;22;20363;-90
2022/10/12 09:03:44;;;;;;;9.70;6.55;;;;;;;;;;12967725;22;20382;-91
2022/10/12 09:09:09;;;;;;;9.50;6.13;;;;;;;;;;12963197;22;20469;-92
2022/10/12 09:14:16;;;;;;;9.98;5.68;;;;;;;;;;12967844;22;20355;-91
2022/10/12 09:19:20;;;;;;;15.47;6.17;;;;;;;;;;12967099;22;20390;-92
2022/10/12 09:24:27;;;;;;;8.70;5.30;;;;;;;;;;12968076;22;20741;-92
2022/10/12 09:29:30;;;;;;;10.75;5.63;;;;;;;;;;12968407;22;20376;-92
2022/10/12 09:34:32;;;;;;;9.87;5.73;;;;;;;;;;12968013;22;20359;-92
2022/10/12 09:39:38;;;;;;;11.00;5.37;;;;;;;;;;12968115;22;20354;-92
2022/10/12 09:44:44;;;;;;;7.63;4.80;;;;;;;;;;12967452;22;20383;-92
2022/10/12 09:49:48;;;;;;;9.05;4.90;;;;;;;;;;12967309;22;20358;-92
2022/10/12 09:54:54;;;;;;;9.52;4.70;;;;;;;;;;12968493;22;20453;-91
2022/10/12 09:59:56;;;;;;;7.43;4.50;;;;;;;;;;12967611;22;20370;-93
2022/10/12 10:05:19;;;;;;;11.48;4.82;;;;;;;;;;12967976;22;20410;-90
2022/10/12 10:10:24;;;;;;;10.98;5.47;;;;;;;;;;12967326;22;20691;-93
2022/10/12 10:15:30;;;;;;;12.40;5.40;;;;;;;;;;12968205;22;20421;-92
2022/10/12 10:20:35;;;;;;;10.95;5.60;;;;;;;;;;12968403;22;20401;-91
2022/10/12 10:25:39;;;;;;;8.90;5.60;;;;;;;;;;12968120;22;20378;-93
2022/10/12 10:30:41;;;;;;;10.75;5.57;;;;;;;;;;12968313;22;20367;-91
2022/10/12 10:35:56;;;;;;;9.40;5.25;;;;;;;;;;12968526;22;20391;-92
2022/10/12 10:41:03;;;;;;;8.10;5.70;;;;;;;;;;12968463;22;20420;-93
2022/10/12 10:46:05;;;;;;;11.02;5.85;;;;;;;;;;12977951;22;20389;-92
2022/10/12 10:51:08;;;;;;;11.48;6.25;;;;;;;;;;12977413;22;20428;-92
2022/10/12 10:56:23;;;;;;;9.00;5.80;;;;;;;;;;12972676;22;20405;-93
2022/10/12 11:01:33;;;;;;;11.48;5.97;;;;;;;;;;12972537;22;20429;-92
2022/10/12 11:06:38;;;;;;;11.20;5.70;;;;;;;;;;12973074;22;20374;-93
2022/10/12 11:11:45;;;;;;;8.32;5.32;;;;;;;;;;12972034;22;20481;-93
2022/10/12 11:16:55;;;;;;;12.73;6.05;;;;;;;;;;12973920;22;20372;-93
2022/10/12 11:22:12;;;;;;;15.15;5.50;;;;;;;;;;12972573;22;20436;-93
2022/10/12 11:27:25;;;;;;;8.30;5.15;;;;;;;;;;12973285;22;20386;-93
2022/10/12 11:32:32;;;;;;;12.20;4.90;;;;;;;;;;12960251;22;20858;-93
2022/10/12 11:37:38;;;;;;;9.02;5.07;;;;;;;;;;12965693;22;20424;-92
2022/10/12 11:42:43;;;;;;;12.25;5.13;;;;;;;;;;12966844;22;20451;-92
2022/10/12 11:47:51;;;;;;;8.75;5.10;;;;;;;;;;12966396;22;20390;-93
2022/10/12 11:52:57;;;;;;;11.23;5.00;;;;;;;;;;12969081;22;20381;-92
2022/10/12 11:58:11;;;;;;;12.10;5.22;;;;;;;;;;12968459;22;20413;-92
2022/10/12 12:03:24;;;;;;;11.13;5.55;;;;;;;;;;12969871;22;20389;-92
2022/10/12 12:09:09;;;;;;;10.68;5.82;;;;;;;;;;12983935;22;20921;-93
2022/10/12 12:14:49;;;;;;;7.93;5.20;;;;;;;;;;12975507;22;20869;-92
2022/10/12 12:19:53;;;;;;;10.30;5.30;;;;;;;;;;12991907;22;20373;-90
2022/10/12 12:25:15;;;;;;;12.65;5.55;;;;;;;;;;12986826;22;20382;-93
2022/10/12 12:30:43;;;;;;;9.18;5.22;;;;;;;;;;13005943;22;20371;-93
2022/10/12 12:35:54;;;;;;;11.67;6.67;;;;;;;;;;12994814;22;20841;-92
2022/10/12 12:40:59;;;;;;;7.37;5.50;;;;;;;;;;12972631;22;20359;-93
2022/10/12 12:46:05;;;;;;;9.47;5.77;;;;;;;;;;12972334;22;20731;-93
2022/10/12 12:51:10;;;;;;;7.90;5.95;;;;;;;;;;12972527;22;20370;-93
2022/10/12 12:56:24;;;;;;;10.40;5.70;;;;;;;;;;12972071;22;20370;-93
2022/10/12 13:01:53;;;;;;;9.97;6.13;;;;;;;;;;12971073;22;20371;-92
2022/10/12 13:07:24;;;;;;;9.88;6.30;;;;;;;;;;12970255;22;20421;-92
2022/10/12 13:13:04;;;;;;;10.02;6.10;;;;;;;;;;12969749;22;20366;-93
2022/10/12 13:19:00;;;;;;;9.95;5.90;;;;;;;;;;12961236;22;20725;-92
2022/10/12 13:24:12;;;;;;;10.88;6.20;;;;;;;;;;12715530;23;20414;-92
2022/10/12 13:29:24;;;;;;;12.38;5.93;;;;;;;;;;12914544;22;20645;-94
2022/10/12 13:34:34;;;;;;;9.75;6.50;;;;;;;;;;12970085;22;20739;-93
2022/10/12 13:39:38;;;;;;;9.17;6.23;;;;;;;;;;12969048;22;20370;-93
2022/10/12 13:44:41;;;;;;;7.78;6.35;;;;;;;;;;12965508;22;20405;-94
2022/10/12 13:49:45;;;;;;;9.57;6.80;;;;;;;;;;12963337;22;20413;-94
2022/10/12 13:54:48;;;;;;;12.60;6.63;;;;;;;;;;12967276;22;20400;-93
2022/10/12 14:00:01;;;;;;;9.43;6.77;;;;;;;;;;12967505;22;20457;-93
2022/10/12 14:05:20;;;;;;;11.02;6.82;;;;;;;;;;12967141;22;20379;-93
2022/10/12 14:10:30;;;;;;;11.30;6.93;;;;;;;;;;12966840;22;20931;-95
2022/10/12 14:15:39;;;;;;;10.03;7.07;;;;;;;;;;12967834;22;20464;-93
2022/10/12 14:20:43;;;;;;;11.88;6.65;;;;;;;;;;12969507;22;20432;-93
2022/10/12 14:25:52;;;;;;;11.07;6.80;;;;;;;;;;12972634;22;20382;-92
2022/10/12 14:30:54;;;;;;;11.07;6.77;;;;;;;;;;12966709;22;20477;-91
2022/10/12 14:36:15;;;;;;;9.47;6.83;;;;;;;;;;12971606;22;20737;-92
2022/10/12 14:41:38;;;;;;;7.53;5.43;;;;;;;;;;12974554;22;20354;-90
2022/10/12 14:46:42;;;;;;;10.18;5.53;;;;;;;;;;12973614;22;20382;-91
2022/10/12 14:51:47;;;;;;;10.25;5.82;;;;;;;;;;12970783;22;20363;-90
2022/10/12 14:56:49;;;;;;;11.07;4.93;;;;;;;;;;12972641;22;20366;-90
2022/10/12 15:01:51;;;;;;;10.63;5.03;;;;;;;;;;12973500;22;20397;-90
2022/10/12 15:06:58;;;;;;;8.30;4.47;;;;;;;;;;12973016;22;20477;-90
2022/10/12 15:12:06;;;;;;;8.57;4.32;;;;;;;;;;12970437;22;20699;-92
2022/10/12 15:17:11;;;;;;;8.00;4.53;;;;;;;;;;12971306;22;20367;-91
2022/10/12 15:22:19;;;;;;;6.80;4.40;;;;;;;;;;12971130;22;20370;-91
2022/10/12 15:27:24;;;;;;;10.33;4.17;;;;;;;;;;12971542;22;20386;-90
2022/10/12 15:32:26;;;;;;;9.95;4.47;;;;;;;;;;12973159;22;20363;-89
2022/10/12 15:37:36;;;;;;;8.05;3.92;;;;;;;;;;12978673;22;20413;-92
2022/10/12 15:42:38;;;;;;;10.18;4.50;;;;;;;;;;12982756;22;20374;-91
2022/10/12 15:47:40;;;;;;;10.00;4.30;;;;;;;;;;12985128;22;20378;-88
2022/10/12 15:52:46;;;;;;;11.27;3.90;;;;;;;;;;12973017;22;20692;-89
2022/10/12 15:57:48;;;;;;;9.02;4.10;;;;;;;;;;12969960;22;20892;-90
2022/10/12 16:02:50;;;;;;;14.30;4.68;;;;;;;;;;12966986;22;20366;-90
2022/10/12 16:07:54;;;;;;;13.15;4.70;;;;;;;;;;12968757;22;20410;-90
2022/10/12 16:12:58;;;;;;;7.53;3.70;;;;;;;;;;12962791;22;20876;-90
2022/10/12 16:18:08;;;;;;;10.23;4.28;;;;;;;;;;12966408;22;20694;-90
2022/10/12 16:23:19;;;;;;;26.30;5.82;;;;;;;;;;12965133;22;20412;-91
2022/10/12 16:28:22;;;;;;;14.57;4.30;;;;;;;;;;12968847;22;20894;-91
2022/10/12 16:33:24;;;;;;;9.82;4.93;;;;;;;;;;12970889;22;20366;-90
2022/10/12 16:38:28;;;;;;;16.58;4.90;;;;;;;;;;12968639;22;20377;-90
2022/10/12 16:43:29;;;;;;;11.90;4.90;;;;;;;;;;12969485;22;20366;-90
2022/10/12 16:48:32;;;;;;;8.63;4.33;;;;;;;;;;12965901;22;20424;-91
2022/10/12 16:58:51;;;;;;;12.35;4.50;;;;;;;;;;12964703;22;20432;-89
2022/10/12 17:04:04;;;;;;;14.55;5.13;;;;;;;;;;12991388;22;20838;-90
2022/10/12 17:14:57;;;;;;;10.68;5.15;;;;;;;;;;12968371;22;20457;-89
2022/10/12 17:19:59;;;;;;;20.30;5.90;;;;;;;;;;12971527;22;20386;-92
2022/10/12 17:25:03;;;;;;;20.43;6.37;;;;;;;;;;12965283;22;20379;-90
2022/10/12 17:30:05;;;;;;;20.75;5.63;;;;;;;;;;12963896;22;20378;-91
2022/10/12 17:35:09;;;;;;;25.77;6.57;;;;;;;;;;12965071;22;20378;-90
2022/10/12 17:40:12;;;;;;;13.25;5.85;;;;;;;;;;12966635;22;20850;-89
2022/10/12 17:45:14;;;;;;;19.90;6.27;;;;;;;;;;12963208;22;20751;-91
2022/10/12 17:50:16;;;;;;;13.07;6.20;;;;;;;;;;12963218;22;20406;-91
2022/10/12 17:55:20;;;;;;;14.75;6.45;;;;;;;;;;12966116;22;20366;-92
2022/10/12 18:00:22;;;;;;;9.07;6.07;;;;;;;;;;12968331;22;20396;-92
2022/10/12 18:05:24;;;;;;;22.95;7.40;;;;;;;;;;12971044;22;21219;-90
2022/10/12 18:10:29;;;;;;;10.73;5.95;;;;;;;;;;12972236;22;20706;-92
2022/10/12 18:15:31;;;;;;;9.20;6.00;;;;;;;;;;12965103;22;20421;-91
2022/10/12 18:20:33;;;;;;;27.77;7.03;;;;;;;;;;12965661;22;20462;-90
2022/10/12 18:25:41;;;;;;;11.98;6.82;;;;;;;;;;12968685;22;20400;-90
2022/10/12 18:30:47;;;;;;;14.20;6.40;;;;;;;;;;12954759;22;20370;-89
2022/10/12 18:35:49;;;;;;;12.27;6.15;;;;;;;;;;12963839;22;20383;-89
2022/10/12 18:40:52;;;;;;;13.93;6.25;;;;;;;;;;12965697;22;20374;-90
2022/10/12 18:45:54;;;;;;;13.90;7.40;;;;;;;;;;12964347;22;20398;-89
2022/10/12 18:50:56;;;;;;;15.77;7.53;;;;;;;;;;12962990;22;20480;-89
2022/10/12 18:56:02;;;;;;;15.57;8.90;;;;;;;;;;12966973;22;20370;-89
2022/10/12 19:01:08;;;;;;;15.07;9.17;;;;;;;;;;12972201;22;20483;-88
2022/10/12 19:06:12;;;;;;;21.98;11.85;;;;;;;;;;12972900;22;20724;-88
2022/10/12 19:11:18;;;;;;;21.90;12.93;;;;;;;;;;12968551;22;20386;-90
2022/10/12 19:16:23;;;;;;;18.23;12.23;;;;;;;;;;12968659;22;20402;-89
2022/10/12 19:21:34;;;;;;;18.70;11.18;;;;;;;;;;12971156;22;20367;-89
2022/10/12 19:26:38;;;;;;;16.00;11.33;;;;;;;;;;12972375;22;20413;-89
2022/10/12 19:31:43;;;;;;;17.33;11.10;;;;;;;;;;12975019;22;20358;-87
2022/10/12 19:36:45;;;;;;;18.77;11.98;;;;;;;;;;12979825;22;20363;-89
2022/10/12 19:41:50;;;;;;;19.47;11.00;;;;;;;;;;12980691;22;20378;-89
2022/10/12 19:46:52;;;;;;;16.73;11.20;;;;;;;;;;12984280;22;20386;-90
2022/10/12 19:51:55;;;;;;;16.10;10.77;;;;;;;;;;12984718;22;20405;-89
2022/10/12 19:56:58;;;;;;;18.93;10.93;;;;;;;;;;12975451;22;20382;-90
2022/10/12 20:02:00;;;;;;;16.30;10.37;;;;;;;;;;12972606;22;20406;-89
2022/10/12 20:07:02;;;;;;;16.15;9.88;;;;;;;;;;12972258;22;20386;-89
2022/10/12 20:12:13;;;;;;;15.15;9.90;;;;;;;;;;12971211;22;20382;-90
2022/10/12 20:17:14;;;;;;;12.82;9.70;;;;;;;;;;12973812;22;20862;-90
2022/10/12 20:22:17;;;;;;;14.13;9.75;;;;;;;;;;12971233;22;20577;-90
2022/10/12 20:27:21;;;;;;;17.60;10.45;;;;;;;;;;12971162;22;20378;-89
2022/10/12 20:32:23;;;;;;;18.08;10.50;;;;;;;;;;12969919;22;20367;-90
2022/10/12 20:37:25;;;;;;;16.77;10.43;;;;;;;;;;12968955;22;20412;-89
2022/10/12 20:42:29;;;;;;;17.33;11.60;;;;;;;;;;12970612;22;20370;-89
2022/10/12 20:47:31;;;;;;;17.48;10.73;;;;;;;;;;12970644;22;20378;-90
2022/10/12 20:52:33;;;;;;;16.73;11.02;;;;;;;;;;12971483;22;20880;-91
2022/10/12 20:57:37;;;;;;;21.30;11.07;;;;;;;;;;12970350;22;20354;-90
2022/10/12 21:02:38;;;;;;;18.67;12.07;;;;;;;;;;12971221;22;20363;-90
2022/10/12 21:07:41;;;;;;;16.55;11.80;;;;;;;;;;12968157;22;20475;-90
2022/10/12 21:12:44;;;;;;;17.30;11.90;;;;;;;;;;12973096;22;20363;-88
2022/10/12 21:17:46;;;;;;;20.53;12.60;;;;;;;;;;12967552;22;20797;-89
2022/10/12 21:22:48;;;;;;;19.67;12.07;;;;;;;;;;12966201;22;20402;-88
2022/10/12 21:27:51;;;;;;;18.40;11.73;;;;;;;;;;12967331;22;20383;-89
2022/10/12 21:32:53;;;;;;;18.17;11.80;;;;;;;;;;12966904;22;20453;-90
2022/10/12 21:37:54;;;;;;;19.88;11.80;;;;;;;;;;12967908;22;20378;-90
2022/10/12 21:42:58;;;;;;;18.30;11.45;;;;;;;;;;12967943;22;20424;-89
2022/10/12 21:48:00;;;;;;;17.87;12.17;;;;;;;;;;12965727;22;20410;-89
2022/10/12 21:53:02;;;;;;;16.95;11.70;;;;;;;;;;12920322;22;20968;-90
2022/10/12 21:58:05;;;;;;;19.17;12.40;;;;;;;;;;12965323;22;20775;-90
2022/10/12 22:03:07;;;;;;;17.23;12.00;;;;;;;;;;12966018;22;20922;-90
2022/10/12 22:08:10;;;;;;;17.50;12.15;;;;;;;;;;12965735;22;20839;-90
2022/10/12 22:13:14;;;;;;;17.90;12.70;;;;;;;;;;12967654;22;20479;-90
2022/10/12 22:18:15;;;;;;;16.13;11.50;;;;;;;;;;12973898;22;20355;-88
2022/10/12 22:23:17;;;;;;;17.65;12.48;;;;;;;;;;12978608;22;20374;-88
2022/10/12 22:28:21;;;;;;;16.15;11.32;;;;;;;;;;12963698;22;20853;-89
2022/10/12 22:33:23;;;;;;;18.98;11.88;;;;;;;;;;12966051;22;20896;-88
2022/10/12 22:38:29;;;;;;;18.38;11.85;;;;;;;;;;12961553;22;20387;-90
2022/10/12 22:43:34;;;;;;;16.00;11.60;;;;;;;;;;12967145;22;20359;-89
2022/10/12 22:48:36;;;;;;;15.00;11.52;;;;;;;;;;12966320;22;20383;-90
2022/10/12 22:53:38;;;;;;;16.55;11.65;;;;;;;;;;12966452;22;20367;-89
2022/10/12 22:58:41;;;;;;;17.27;11.95;;;;;;;;;;12964240;22;20618;-90
2022/10/12 23:03:44;;;;;;;16.73;11.85;;;;;;;;;;12968717;22;20401;-89
2022/10/12 23:08:47;;;;;;;20.20;12.07;;;;;;;;;;12974515;22;20387;-88
2022/10/12 23:13:50;;;;;;;16.45;11.18;;;;;;;;;;12973820;22;20732;-89
2022/10/12 23:18:53;;;;;;;17.15;11.60;;;;;;;;;;12973439;22;20359;-90
2022/10/12 23:23:55;;;;;;;17.77;11.93;;;;;;;;;;12971825;22;20366;-91
2022/10/12 23:28:59;;;;;;;14.90;11.40;;;;;;;;;;12972424;22;20387;-89
2022/10/12 23:34:02;;;;;;;18.40;11.63;;;;;;;;;;12972002;22;20849;-91
2022/10/12 23:39:05;;;;;;;17.87;12.23;;;;;;;;;;12972382;22;20420;-89
2022/10/12 23:44:08;;;;;;;18.13;12.40;;;;;;;;;;12971922;22;20905;-87
2022/10/12 23:49:10;;;;;;;17.55;11.85;;;;;;;;;;12971708;22;20397;-89
2022/10/12 23:54:12;;;;;;;17.50;12.18;;;;;;;;;;12971376;22;20366;-89
2022/10/12 23:59:15;;;;;;;16.85;12.50;;;;;;;;;;12971864;22;20355;-88
